sensor_id;sensor_type;location;lat;lon;timestamp;P1;durP1;ratioP1;P2;durP2;ratioP2
38397;SDS011;24179;52.094;4.408;2024-02-04T00:02:00;26.00;;;6.10;;
38397;SDS011;24179;52.094;4.408;2024-02-04T00:05:01;27.60;;;6.00;;
38397;SDS011;24179;52.094;4.408;2024-02-04T00:08:01;36.40;;;6.50;;
38397;SDS011;24179;52.094;4.408;2024-02-04T00:11:02;25.73;;;6.33;;
38397;SDS011;24179;52.094;4.408;2024-02-04T00:14:08;25.45;;;5.75;;
38397;SDS011;24179;52.094;4.408;2024-02-04T00:17:09;26.27;;;5.80;;
38397;SDS011;24179;52.094;4.408;2024-02-04T00:20:09;26.83;;;6.80;;
38397;SDS011;24179;52.094;4.408;2024-02-04T00:23:10;28.57;;;6.10;;
38397;SDS011;24179;52.094;4.408;2024-02-04T00:26:10;30.47;;;7.30;;
38397;SDS011;24179;52.094;4.408;2024-02-04T00:29:11;26.70;;;6.03;;
38397;SDS011;24179;52.094;4.408;2024-02-04T00:32:12;26.87;;;6.37;;
38397;SDS011;24179;52.094;4.408;2024-02-04T00:35:12;24.73;;;6.40;;
38397;SDS011;24179;52.094;4.408;2024-02-04T00:38:13;39.97;;;7.53;;
38397;SDS011;24179;52.094;4.408;2024-02-04T00:41:13;21.80;;;6.00;;
38397;SDS011;24179;52.094;4.408;2024-02-04T00:44:14;23.70;;;6.63;;
38397;SDS011;24179;52.094;4.408;2024-02-04T00:47:15;24.97;;;5.87;;
38397;SDS011;24179;52.094;4.408;2024-02-04T00:50:15;18.67;;;6.07;;
38397;SDS011;24179;52.094;4.408;2024-02-04T00:53:16;31.77;;;6.77;;
38397;SDS011;24179;52.094;4.408;2024-02-04T00:56:16;33.00;;;6.53;;
38397;SDS011;24179;52.094;4.408;2024-02-04T00:59:17;23.47;;;6.90;;
38397;SDS011;24179;52.094;4.408;2024-02-04T01:02:17;25.97;;;6.63;;
38397;SDS011;24179;52.094;4.408;2024-02-04T01:05:18;30.07;;;6.83;;
38397;SDS011;24179;52.094;4.408;2024-02-04T01:08:19;27.73;;;7.75;;
38397;SDS011;24179;52.094;4.408;2024-02-04T01:11:19;25.87;;;6.47;;
38397;SDS011;24179;52.094;4.408;2024-02-04T01:14:20;23.77;;;6.87;;
38397;SDS011;24179;52.094;4.408;2024-02-04T01:17:21;25.07;;;5.57;;
38397;SDS011;24179;52.094;4.408;2024-02-04T01:20:21;32.67;;;6.97;;
38397;SDS011;24179;52.094;4.408;2024-02-04T01:23:22;28.23;;;6.27;;
38397;SDS011;24179;52.094;4.408;2024-02-04T01:26:22;31.63;;;7.20;;
38397;SDS011;24179;52.094;4.408;2024-02-04T01:29:24;21.92;;;6.15;;
38397;SDS011;24179;52.094;4.408;2024-02-04T01:32:24;33.87;;;6.50;;
38397;SDS011;24179;52.094;4.408;2024-02-04T01:35:25;27.90;;;6.50;;
38397;SDS011;24179;52.094;4.408;2024-02-04T01:38:26;26.15;;;5.70;;
38397;SDS011;24179;52.094;4.408;2024-02-04T01:41:26;25.47;;;6.50;;
38397;SDS011;24179;52.094;4.408;2024-02-04T01:44:27;20.80;;;5.53;;
38397;SDS011;24179;52.094;4.408;2024-02-04T01:47:28;29.23;;;6.27;;
38397;SDS011;24179;52.094;4.408;2024-02-04T01:50:28;22.33;;;5.80;;
38397;SDS011;24179;52.094;4.408;2024-02-04T01:53:29;28.37;;;6.10;;
38397;SDS011;24179;52.094;4.408;2024-02-04T01:56:32;24.42;;;6.38;;
38397;SDS011;24179;52.094;4.408;2024-02-04T01:59:33;28.40;;;6.32;;
38397;SDS011;24179;52.094;4.408;2024-02-04T02:02:34;30.03;;;5.93;;
38397;SDS011;24179;52.094;4.408;2024-02-04T02:05:39;25.35;;;6.13;;
38397;SDS011;24179;52.094;4.408;2024-02-04T02:11:42;27.80;;;6.20;;
38397;SDS011;24179;52.094;4.408;2024-02-04T02:14:48;20.35;;;5.82;;
38397;SDS011;24179;52.094;4.408;2024-02-04T02:17:58;20.65;;;5.43;;
38397;SDS011;24179;52.094;4.408;2024-02-04T02:24:29;15.05;;;5.32;;
38397;SDS011;24179;52.094;4.408;2024-02-04T02:27:32;22.20;;;4.85;;
38397;SDS011;24179;52.094;4.408;2024-02-04T02:30:33;20.67;;;5.37;;
38397;SDS011;24179;52.094;4.408;2024-02-04T02:33:33;14.70;;;5.00;;
38397;SDS011;24179;52.094;4.408;2024-02-04T02:36:36;24.30;;;5.40;;
38397;SDS011;24179;52.094;4.408;2024-02-04T02:39:53;22.27;;;6.25;;
38397;SDS011;24179;52.094;4.408;2024-02-04T02:43:02;25.60;;;5.45;;
38397;SDS011;24179;52.094;4.408;2024-02-04T02:46:04;25.80;;;5.97;;
38397;SDS011;24179;52.094;4.408;2024-02-04T02:49:05;26.73;;;7.03;;
38397;SDS011;24179;52.094;4.408;2024-02-04T02:52:06;26.95;;;5.72;;
38397;SDS011;24179;52.094;4.408;2024-02-04T02:55:07;24.20;;;6.27;;
38397;SDS011;24179;52.094;4.408;2024-02-04T02:58:07;22.87;;;5.03;;
38397;SDS011;24179;52.094;4.408;2024-02-04T03:01:08;21.13;;;4.93;;
38397;SDS011;24179;52.094;4.408;2024-02-04T03:04:08;19.03;;;5.27;;
38397;SDS011;24179;52.094;4.408;2024-02-04T03:07:09;21.00;;;5.13;;
38397;SDS011;24179;52.094;4.408;2024-02-04T03:10:10;26.13;;;5.43;;
38397;SDS011;24179;52.094;4.408;2024-02-04T03:13:11;22.63;;;5.40;;
38397;SDS011;24179;52.094;4.408;2024-02-04T03:16:11;28.27;;;5.30;;
38397;SDS011;24179;52.094;4.408;2024-02-04T03:19:12;21.40;;;5.60;;
38397;SDS011;24179;52.094;4.408;2024-02-04T03:22:13;20.17;;;5.30;;
38397;SDS011;24179;52.094;4.408;2024-02-04T03:25:13;18.60;;;5.07;;
38397;SDS011;24179;52.094;4.408;2024-02-04T03:28:14;27.10;;;5.77;;
38397;SDS011;24179;52.094;4.408;2024-02-04T03:31:21;16.50;;;5.40;;
38397;SDS011;24179;52.094;4.408;2024-02-04T03:34:22;19.40;;;4.82;;
38397;SDS011;24179;52.094;4.408;2024-02-04T03:37:23;26.13;;;5.53;;
38397;SDS011;24179;52.094;4.408;2024-02-04T03:40:24;25.07;;;6.47;;
38397;SDS011;24179;52.094;4.408;2024-02-04T03:43:24;33.10;;;6.73;;
38397;SDS011;24179;52.094;4.408;2024-02-04T03:46:25;28.33;;;5.77;;
38397;SDS011;24179;52.094;4.408;2024-02-04T03:49:25;19.13;;;5.33;;
38397;SDS011;24179;52.094;4.408;2024-02-04T03:52:26;18.60;;;5.50;;
38397;SDS011;24179;52.094;4.408;2024-02-04T03:55:27;22.83;;;5.40;;
38397;SDS011;24179;52.094;4.408;2024-02-04T03:58:27;23.27;;;5.93;;
38397;SDS011;24179;52.094;4.408;2024-02-04T04:01:31;22.75;;;5.75;;
38397;SDS011;24179;52.094;4.408;2024-02-04T04:04:31;18.00;;;5.33;;
38397;SDS011;24179;52.094;4.408;2024-02-04T04:07:32;19.70;;;5.33;;
38397;SDS011;24179;52.094;4.408;2024-02-04T04:10:33;18.90;;;5.30;;
38397;SDS011;24179;52.094;4.408;2024-02-04T04:13:33;18.52;;;5.07;;
38397;SDS011;24179;52.094;4.408;2024-02-04T04:16:34;26.33;;;6.13;;
38397;SDS011;24179;52.094;4.408;2024-02-04T04:19:35;22.17;;;5.27;;
38397;SDS011;24179;52.094;4.408;2024-02-04T04:22:38;20.17;;;5.18;;
38397;SDS011;24179;52.094;4.408;2024-02-04T04:25:40;21.25;;;4.72;;
38397;SDS011;24179;52.094;4.408;2024-02-04T04:28:41;17.53;;;4.80;;
38397;SDS011;24179;52.094;4.408;2024-02-04T04:31:41;17.77;;;4.60;;
38397;SDS011;24179;52.094;4.408;2024-02-04T04:34:42;12.63;;;4.57;;
38397;SDS011;24179;52.094;4.408;2024-02-04T04:37:43;20.20;;;4.43;;
38397;SDS011;24179;52.094;4.408;2024-02-04T04:40:43;18.43;;;5.00;;
38397;SDS011;24179;52.094;4.408;2024-02-04T04:43:44;15.97;;;4.40;;
38397;SDS011;24179;52.094;4.408;2024-02-04T04:46:44;17.70;;;4.30;;
38397;SDS011;24179;52.094;4.408;2024-02-04T04:49:45;21.63;;;5.20;;
38397;SDS011;24179;52.094;4.408;2024-02-04T04:52:45;24.37;;;5.07;;
38397;SDS011;24179;52.094;4.408;2024-02-04T04:55:46;27.97;;;5.83;;
38397;SDS011;24179;52.094;4.408;2024-02-04T04:58:46;30.00;;;6.60;;
38397;SDS011;24179;52.094;4.408;2024-02-04T05:01:47;23.50;;;6.00;;
38397;SDS011;24179;52.094;4.408;2024-02-04T05:04:48;34.55;;;7.45;;
38397;SDS011;24179;52.094;4.408;2024-02-04T05:07:49;27.57;;;6.57;;
38397;SDS011;24179;52.094;4.408;2024-02-04T05:10:49;21.97;;;6.30;;
38397;SDS011;24179;52.094;4.408;2024-02-04T05:13:50;23.47;;;5.67;;
38397;SDS011;24179;52.094;4.408;2024-02-04T05:16:51;25.47;;;6.60;;
38397;SDS011;24179;52.094;4.408;2024-02-04T05:19:51;33.77;;;7.70;;
38397;SDS011;24179;52.094;4.408;2024-02-04T05:22:52;29.27;;;7.67;;
38397;SDS011;24179;52.094;4.408;2024-02-04T05:25:54;30.58;;;8.15;;
38397;SDS011;24179;52.094;4.408;2024-02-04T05:28:54;24.67;;;7.17;;
38397;SDS011;24179;52.094;4.408;2024-02-04T05:31:55;22.40;;;7.13;;
38397;SDS011;24179;52.094;4.408;2024-02-04T05:34:55;28.47;;;6.90;;
38397;SDS011;24179;52.094;4.408;2024-02-04T05:37:56;26.30;;;8.13;;
38397;SDS011;24179;52.094;4.408;2024-02-04T05:40:56;32.60;;;7.43;;
38397;SDS011;24179;52.094;4.408;2024-02-04T05:43:57;23.20;;;7.77;;
38397;SDS011;24179;52.094;4.408;2024-02-04T05:46:58;25.73;;;6.80;;
38397;SDS011;24179;52.094;4.408;2024-02-04T05:49:58;41.80;;;7.27;;
38397;SDS011;24179;52.094;4.408;2024-02-04T05:52:59;22.30;;;6.70;;
38397;SDS011;24179;52.094;4.408;2024-02-04T05:56:00;28.37;;;7.03;;
38397;SDS011;24179;52.094;4.408;2024-02-04T05:59:00;20.30;;;6.43;;
38397;SDS011;24179;52.094;4.408;2024-02-04T06:02:01;28.37;;;5.73;;
38397;SDS011;24179;52.094;4.408;2024-02-04T06:05:01;20.57;;;5.57;;
38397;SDS011;24179;52.094;4.408;2024-02-04T06:08:02;24.48;;;5.85;;
38397;SDS011;24179;52.094;4.408;2024-02-04T06:11:03;17.45;;;4.95;;
38397;SDS011;24179;52.094;4.408;2024-02-04T06:14:04;19.57;;;5.37;;
38397;SDS011;24179;52.094;4.408;2024-02-04T06:17:05;15.43;;;4.50;;
38397;SDS011;24179;52.094;4.408;2024-02-04T06:20:08;18.10;;;5.75;;
38397;SDS011;24179;52.094;4.408;2024-02-04T06:23:09;17.45;;;4.93;;
38397;SDS011;24179;52.094;4.408;2024-02-04T06:26:09;19.67;;;5.13;;
38397;SDS011;24179;52.094;4.408;2024-02-04T06:29:10;18.03;;;5.10;;
38397;SDS011;24179;52.094;4.408;2024-02-04T06:32:10;17.30;;;5.27;;
38397;SDS011;24179;52.094;4.408;2024-02-04T06:35:12;12.88;;;5.40;;
38397;SDS011;24179;52.094;4.408;2024-02-04T06:38:12;12.87;;;5.33;;
38397;SDS011;24179;52.094;4.408;2024-02-04T06:41:13;14.43;;;5.67;;
38397;SDS011;24179;52.094;4.408;2024-02-04T06:44:13;18.20;;;5.73;;
38397;SDS011;24179;52.094;4.408;2024-02-04T06:47:14;18.77;;;4.83;;
38397;SDS011;24179;52.094;4.408;2024-02-04T06:50:14;17.77;;;5.60;;
38397;SDS011;24179;52.094;4.408;2024-02-04T06:53:16;19.35;;;5.55;;
38397;SDS011;24179;52.094;4.408;2024-02-04T06:56:16;13.00;;;4.77;;
38397;SDS011;24179;52.094;4.408;2024-02-04T06:59:17;15.30;;;5.27;;
38397;SDS011;24179;52.094;4.408;2024-02-04T07:02:17;19.23;;;5.80;;
38397;SDS011;24179;52.094;4.408;2024-02-04T07:05:18;18.47;;;5.70;;
38397;SDS011;24179;52.094;4.408;2024-02-04T07:08:18;16.87;;;5.27;;
38397;SDS011;24179;52.094;4.408;2024-02-04T07:11:19;16.30;;;4.67;;
38397;SDS011;24179;52.094;4.408;2024-02-04T07:14:20;13.97;;;4.47;;
38397;SDS011;24179;52.094;4.408;2024-02-04T07:17:20;10.77;;;4.50;;
38397;SDS011;24179;52.094;4.408;2024-02-04T07:20:21;12.33;;;4.10;;
38397;SDS011;24179;52.094;4.408;2024-02-04T07:23:21;24.33;;;5.30;;
38397;SDS011;24179;52.094;4.408;2024-02-04T07:26:22;24.60;;;5.90;;
38397;SDS011;24179;52.094;4.408;2024-02-04T07:29:23;18.03;;;4.87;;
38397;SDS011;24179;52.094;4.408;2024-02-04T07:32:23;18.30;;;4.97;;
38397;SDS011;24179;52.094;4.408;2024-02-04T07:35:24;20.63;;;5.67;;
38397;SDS011;24179;52.094;4.408;2024-02-04T07:38:24;22.80;;;4.83;;
38397;SDS011;24179;52.094;4.408;2024-02-04T07:41:25;17.23;;;4.97;;
38397;SDS011;24179;52.094;4.408;2024-02-04T07:44:27;24.98;;;5.38;;
38397;SDS011;24179;52.094;4.408;2024-02-04T07:47:27;18.52;;;5.00;;
38397;SDS011;24179;52.094;4.408;2024-02-04T07:50:28;19.20;;;4.50;;
38397;SDS011;24179;52.094;4.408;2024-02-04T07:53:29;14.73;;;3.90;;
38397;SDS011;24179;52.094;4.408;2024-02-04T07:56:29;18.93;;;4.67;;
38397;SDS011;24179;52.094;4.408;2024-02-04T07:59:30;15.03;;;4.43;;
38397;SDS011;24179;52.094;4.408;2024-02-04T08:02:31;15.60;;;3.93;;
38397;SDS011;24179;52.094;4.408;2024-02-04T08:05:31;11.10;;;4.00;;
38397;SDS011;24179;52.094;4.408;2024-02-04T08:08:32;18.97;;;4.50;;
38397;SDS011;24179;52.094;4.408;2024-02-04T08:11:33;10.85;;;4.05;;
38397;SDS011;24179;52.094;4.408;2024-02-04T08:14:33;11.93;;;4.47;;
38397;SDS011;24179;52.094;4.408;2024-02-04T08:17:34;9.93;;;3.33;;
38397;SDS011;24179;52.094;4.408;2024-02-04T08:20:34;22.23;;;4.00;;
38397;SDS011;24179;52.094;4.408;2024-02-04T08:23:35;15.17;;;4.40;;
38397;SDS011;24179;52.094;4.408;2024-02-04T08:26:35;20.03;;;4.80;;
38397;SDS011;24179;52.094;4.408;2024-02-04T08:29:36;11.20;;;3.87;;
38397;SDS011;24179;52.094;4.408;2024-02-04T08:32:37;12.77;;;4.20;;
38397;SDS011;24179;52.094;4.408;2024-02-04T08:35:38;12.20;;;3.73;;
38397;SDS011;24179;52.094;4.408;2024-02-04T08:38:41;13.52;;;3.85;;
38397;SDS011;24179;52.094;4.408;2024-02-04T08:41:42;8.30;;;4.07;;
38397;SDS011;24179;52.094;4.408;2024-02-04T08:44:42;10.00;;;3.90;;
38397;SDS011;24179;52.094;4.408;2024-02-04T08:47:43;12.90;;;3.33;;
38397;SDS011;24179;52.094;4.408;2024-02-04T08:50:44;9.80;;;3.90;;
38397;SDS011;24179;52.094;4.408;2024-02-04T08:53:44;14.43;;;4.07;;
38397;SDS011;24179;52.094;4.408;2024-02-04T08:56:45;8.57;;;3.67;;
38397;SDS011;24179;52.094;4.408;2024-02-04T08:59:46;12.85;;;3.58;;
38397;SDS011;24179;52.094;4.408;2024-02-04T09:02:47;10.93;;;3.97;;
38397;SDS011;24179;52.094;4.408;2024-02-04T09:05:48;13.60;;;3.70;;
38397;SDS011;24179;52.094;4.408;2024-02-04T09:08:49;13.73;;;3.40;;
38397;SDS011;24179;52.094;4.408;2024-02-04T09:11:49;8.83;;;3.10;;
38397;SDS011;24179;52.094;4.408;2024-02-04T09:14:50;10.37;;;3.67;;
38397;SDS011;24179;52.094;4.408;2024-02-04T09:17:50;10.47;;;3.23;;
38397;SDS011;24179;52.094;4.408;2024-02-04T09:20:51;6.20;;;3.03;;
38397;SDS011;24179;52.094;4.408;2024-02-04T09:23:51;11.87;;;3.33;;
38397;SDS011;24179;52.094;4.408;2024-02-04T09:26:52;10.43;;;3.30;;
38397;SDS011;24179;52.094;4.408;2024-02-04T09:29:52;7.60;;;2.83;;
38397;SDS011;24179;52.094;4.408;2024-02-04T09:32:55;10.80;;;3.10;;
38397;SDS011;24179;52.094;4.408;2024-02-04T09:35:55;5.87;;;2.70;;
38397;SDS011;24179;52.094;4.408;2024-02-04T09:38:56;5.37;;;2.60;;
38397;SDS011;24179;52.094;4.408;2024-02-04T09:41:56;9.57;;;3.00;;
38397;SDS011;24179;52.094;4.408;2024-02-04T09:44:57;4.70;;;3.13;;
38397;SDS011;24179;52.094;4.408;2024-02-04T09:47:59;7.03;;;3.03;;
38397;SDS011;24179;52.094;4.408;2024-02-04T09:51:00;5.88;;;2.90;;
38397;SDS011;24179;52.094;4.408;2024-02-04T09:54:03;7.47;;;3.15;;
38397;SDS011;24179;52.094;4.408;2024-02-04T09:57:06;9.07;;;3.30;;
38397;SDS011;24179;52.094;4.408;2024-02-04T10:00:07;11.18;;;3.72;;
38397;SDS011;24179;52.094;4.408;2024-02-04T10:03:10;14.63;;;3.90;;
38397;SDS011;24179;52.094;4.408;2024-02-04T10:06:11;7.80;;;3.23;;
38397;SDS011;24179;52.094;4.408;2024-02-04T10:09:11;15.17;;;4.20;;
38397;SDS011;24179;52.094;4.408;2024-02-04T10:12:12;11.30;;;3.37;;
38397;SDS011;24179;52.094;4.408;2024-02-04T10:15:12;9.63;;;3.53;;
38397;SDS011;24179;52.094;4.408;2024-02-04T10:18:13;13.02;;;3.50;;
38397;SDS011;24179;52.094;4.408;2024-02-04T10:21:20;13.23;;;3.20;;
38397;SDS011;24179;52.094;4.408;2024-02-04T10:24:23;9.95;;;3.15;;
38397;SDS011;24179;52.094;4.408;2024-02-04T10:27:23;13.03;;;3.30;;
38397;SDS011;24179;52.094;4.408;2024-02-04T10:30:25;16.67;;;3.45;;
38397;SDS011;24179;52.094;4.408;2024-02-04T10:33:26;13.07;;;3.60;;
38397;SDS011;24179;52.094;4.408;2024-02-04T10:36:30;11.18;;;3.40;;
38397;SDS011;24179;52.094;4.408;2024-02-04T10:42:31;12.85;;;3.05;;
38397;SDS011;24179;52.094;4.408;2024-02-04T10:45:34;15.93;;;3.40;;
38397;SDS011;24179;52.094;4.408;2024-02-04T10:48:39;16.08;;;3.10;;
38397;SDS011;24179;52.094;4.408;2024-02-04T10:51:44;14.85;;;3.10;;
38397;SDS011;24179;52.094;4.408;2024-02-04T10:54:46;9.00;;;2.70;;
38397;SDS011;24179;52.094;4.408;2024-02-04T10:57:48;11.00;;;3.00;;
38397;SDS011;24179;52.094;4.408;2024-02-04T11:00:49;17.70;;;3.50;;
38397;SDS011;24179;52.094;4.408;2024-02-04T11:03:56;14.40;;;3.97;;
38397;SDS011;24179;52.094;4.408;2024-02-04T11:06:58;13.73;;;3.03;;
38397;SDS011;24179;52.094;4.408;2024-02-04T11:10:01;11.82;;;3.40;;
38397;SDS011;24179;52.094;4.408;2024-02-04T11:13:02;15.90;;;3.78;;
38397;SDS011;24179;52.094;4.408;2024-02-04T11:16:07;10.18;;;3.50;;
38397;SDS011;24179;52.094;4.408;2024-02-04T11:19:31;17.02;;;3.90;;
38397;SDS011;24179;52.094;4.408;2024-02-04T11:26:07;15.40;;;4.18;;
38397;SDS011;24179;52.094;4.408;2024-02-04T11:29:09;14.23;;;3.78;;
38397;SDS011;24179;52.094;4.408;2024-02-04T11:32:10;15.18;;;3.40;;
38397;SDS011;24179;52.094;4.408;2024-02-04T11:35:12;12.20;;;4.05;;
38397;SDS011;24179;52.094;4.408;2024-02-04T11:38:17;18.15;;;3.60;;
38397;SDS011;24179;52.094;4.408;2024-02-04T11:41:24;15.10;;;3.78;;
38397;SDS011;24179;52.094;4.408;2024-02-04T11:44:26;16.52;;;4.45;;
38397;SDS011;24179;52.094;4.408;2024-02-04T11:47:27;11.65;;;3.88;;
38397;SDS011;24179;52.094;4.408;2024-02-04T11:50:28;13.40;;;3.83;;
38397;SDS011;24179;52.094;4.408;2024-02-04T11:53:32;10.45;;;3.63;;
38397;SDS011;24179;52.094;4.408;2024-02-04T11:56:32;20.43;;;3.67;;
38397;SDS011;24179;52.094;4.408;2024-02-04T11:59:33;14.77;;;3.27;;
38397;SDS011;24179;52.094;4.408;2024-02-04T12:02:35;14.93;;;3.55;;
38397;SDS011;24179;52.094;4.408;2024-02-04T12:05:36;16.83;;;3.00;;
38397;SDS011;24179;52.094;4.408;2024-02-04T12:08:38;12.35;;;3.25;;
38397;SDS011;24179;52.094;4.408;2024-02-04T12:11:39;14.18;;;3.80;;
38397;SDS011;24179;52.094;4.408;2024-02-04T12:14:41;16.02;;;4.03;;
38397;SDS011;24179;52.094;4.408;2024-02-04T12:17:42;12.23;;;3.67;;
38397;SDS011;24179;52.094;4.408;2024-02-04T12:20:43;17.00;;;3.80;;
38397;SDS011;24179;52.094;4.408;2024-02-04T12:23:44;16.20;;;4.10;;
38397;SDS011;24179;52.094;4.408;2024-02-04T12:26:45;14.40;;;3.27;;
38397;SDS011;24179;52.094;4.408;2024-02-04T12:29:50;13.13;;;4.10;;
38397;SDS011;24179;52.094;4.408;2024-02-04T12:32:58;13.38;;;3.83;;
38397;SDS011;24179;52.094;4.408;2024-02-04T12:36:00;13.70;;;3.65;;
38397;SDS011;24179;52.094;4.408;2024-02-04T12:42:03;15.02;;;3.70;;
38397;SDS011;24179;52.094;4.408;2024-02-04T12:45:04;17.17;;;3.80;;
38397;SDS011;24179;52.094;4.408;2024-02-04T12:48:05;17.00;;;3.70;;
38397;SDS011;24179;52.094;4.408;2024-02-04T12:51:07;18.30;;;3.75;;
38397;SDS011;24179;52.094;4.408;2024-02-04T12:54:08;20.30;;;4.23;;
38397;SDS011;24179;52.094;4.408;2024-02-04T12:57:22;13.85;;;3.47;;
38397;SDS011;24179;52.094;4.408;2024-02-04T13:00:24;16.15;;;3.50;;
38397;SDS011;24179;52.094;4.408;2024-02-04T13:03:24;10.60;;;3.33;;
38397;SDS011;24179;52.094;4.408;2024-02-04T13:06:25;8.87;;;3.00;;
38397;SDS011;24179;52.094;4.408;2024-02-04T13:09:26;10.73;;;3.40;;
38397;SDS011;24179;52.094;4.408;2024-02-04T13:12:26;16.87;;;4.03;;
38397;SDS011;24179;52.094;4.408;2024-02-04T13:15:28;26.73;;;4.30;;
38397;SDS011;24179;52.094;4.408;2024-02-04T13:18:29;15.43;;;3.60;;
38397;SDS011;24179;52.094;4.408;2024-02-04T13:21:30;17.73;;;3.77;;
38397;SDS011;24179;52.094;4.408;2024-02-04T13:24:31;13.97;;;3.10;;
38397;SDS011;24179;52.094;4.408;2024-02-04T13:30:32;14.47;;;3.80;;
38397;SDS011;24179;52.094;4.408;2024-02-04T13:33:33;13.10;;;3.70;;
38397;SDS011;24179;52.094;4.408;2024-02-04T13:36:34;14.43;;;3.53;;
38397;SDS011;24179;52.094;4.408;2024-02-04T13:39:34;12.80;;;3.70;;
38397;SDS011;24179;52.094;4.408;2024-02-04T13:42:35;12.63;;;3.50;;
38397;SDS011;24179;52.094;4.408;2024-02-04T13:45:36;8.50;;;3.00;;
38397;SDS011;24179;52.094;4.408;2024-02-04T13:48:37;16.43;;;3.60;;
38397;SDS011;24179;52.094;4.408;2024-02-04T13:51:37;15.47;;;3.80;;
38397;SDS011;24179;52.094;4.408;2024-02-04T13:54:38;12.93;;;3.83;;
38397;SDS011;24179;52.094;4.408;2024-02-04T13:57:39;10.40;;;3.53;;
38397;SDS011;24179;52.094;4.408;2024-02-04T14:00:39;16.93;;;4.07;;
38397;SDS011;24179;52.094;4.408;2024-02-04T14:03:40;15.03;;;3.30;;
38397;SDS011;24179;52.094;4.408;2024-02-04T14:06:40;14.97;;;3.90;;
38397;SDS011;24179;52.094;4.408;2024-02-04T14:09:41;17.70;;;4.00;;
38397;SDS011;24179;52.094;4.408;2024-02-04T14:12:42;19.50;;;3.80;;
38397;SDS011;24179;52.094;4.408;2024-02-04T14:15:45;14.60;;;3.67;;
38397;SDS011;24179;52.094;4.408;2024-02-04T14:18:45;12.33;;;3.90;;
38397;SDS011;24179;52.094;4.408;2024-02-04T14:21:46;17.83;;;4.33;;
38397;SDS011;24179;52.094;4.408;2024-02-04T14:24:47;12.50;;;3.30;;
38397;SDS011;24179;52.094;4.408;2024-02-04T14:27:49;16.80;;;3.70;;
38397;SDS011;24179;52.094;4.408;2024-02-04T14:30:50;12.85;;;3.10;;
38397;SDS011;24179;52.094;4.408;2024-02-04T14:33:51;9.80;;;3.50;;
38397;SDS011;24179;52.094;4.408;2024-02-04T14:36:51;15.47;;;3.63;;
38397;SDS011;24179;52.094;4.408;2024-02-04T14:39:52;14.67;;;3.40;;
38397;SDS011;24179;52.094;4.408;2024-02-04T14:42:52;11.47;;;3.17;;
38397;SDS011;24179;52.094;4.408;2024-02-04T14:45:53;16.73;;;3.60;;
38397;SDS011;24179;52.094;4.408;2024-02-04T14:48:53;9.83;;;3.20;;
38397;SDS011;24179;52.094;4.408;2024-02-04T14:51:54;10.13;;;3.07;;
38397;SDS011;24179;52.094;4.408;2024-02-04T14:54:54;15.00;;;3.70;;
38397;SDS011;24179;52.094;4.408;2024-02-04T14:57:55;12.33;;;3.73;;
38397;SDS011;24179;52.094;4.408;2024-02-04T15:00:56;11.97;;;3.60;;
38397;SDS011;24179;52.094;4.408;2024-02-04T15:03:57;13.50;;;3.50;;
38397;SDS011;24179;52.094;4.408;2024-02-04T15:06:58;22.20;;;4.33;;
38397;SDS011;24179;52.094;4.408;2024-02-04T15:09:59;14.50;;;4.10;;
38397;SDS011;24179;52.094;4.408;2024-02-04T15:13:00;19.27;;;4.37;;
38397;SDS011;24179;52.094;4.408;2024-02-04T15:16:01;19.25;;;4.47;;
38397;SDS011;24179;52.094;4.408;2024-02-04T15:19:02;21.13;;;5.05;;
38397;SDS011;24179;52.094;4.408;2024-02-04T15:22:03;21.03;;;4.87;;
38397;SDS011;24179;52.094;4.408;2024-02-04T15:25:04;17.83;;;4.45;;
38397;SDS011;24179;52.094;4.408;2024-02-04T15:28:05;21.00;;;5.32;;
38397;SDS011;24179;52.094;4.408;2024-02-04T15:31:08;23.80;;;4.55;;
38397;SDS011;24179;52.094;4.408;2024-02-04T15:34:09;16.30;;;4.80;;
38397;SDS011;24179;52.094;4.408;2024-02-04T15:37:10;14.13;;;3.50;;
38397;SDS011;24179;52.094;4.408;2024-02-04T15:40:10;19.63;;;4.63;;
38397;SDS011;24179;52.094;4.408;2024-02-04T15:43:11;17.30;;;4.80;;
38397;SDS011;24179;52.094;4.408;2024-02-04T15:46:12;23.47;;;4.90;;
38397;SDS011;24179;52.094;4.408;2024-02-04T15:49:13;17.70;;;4.43;;
38397;SDS011;24179;52.094;4.408;2024-02-04T15:52:15;22.50;;;4.30;;
38397;SDS011;24179;52.094;4.408;2024-02-04T15:55:16;19.88;;;4.40;;
38397;SDS011;24179;52.094;4.408;2024-02-04T15:58:17;26.90;;;4.40;;
38397;SDS011;24179;52.094;4.408;2024-02-04T16:01:17;22.70;;;4.90;;
38397;SDS011;24179;52.094;4.408;2024-02-04T16:04:21;22.65;;;4.50;;
38397;SDS011;24179;52.094;4.408;2024-02-04T16:07:22;38.45;;;5.00;;
38397;SDS011;24179;52.094;4.408;2024-02-04T16:10:23;25.48;;;4.32;;
38397;SDS011;24179;52.094;4.408;2024-02-04T16:13:24;22.33;;;4.27;;
38397;SDS011;24179;52.094;4.408;2024-02-04T16:16:30;27.33;;;4.45;;
38397;SDS011;24179;52.094;4.408;2024-02-04T16:19:35;34.25;;;4.68;;
38397;SDS011;24179;52.094;4.408;2024-02-04T16:25:37;35.30;;;5.83;;
38397;SDS011;24179;52.094;4.408;2024-02-04T16:28:37;25.53;;;4.40;;
38397;SDS011;24179;52.094;4.408;2024-02-04T16:31:38;29.50;;;4.95;;
38397;SDS011;24179;52.094;4.408;2024-02-04T16:34:39;30.10;;;5.87;;
38397;SDS011;24179;52.094;4.408;2024-02-04T16:37:40;28.10;;;4.80;;
38397;SDS011;24179;52.094;4.408;2024-02-04T16:40:41;34.60;;;5.43;;
38397;SDS011;24179;52.094;4.408;2024-02-04T16:43:41;32.03;;;5.60;;
38397;SDS011;24179;52.094;4.408;2024-02-04T16:46:42;28.88;;;5.25;;
38397;SDS011;24179;52.094;4.408;2024-02-04T16:49:43;28.87;;;5.10;;
38397;SDS011;24179;52.094;4.408;2024-02-04T16:52:44;27.67;;;5.03;;
38397;SDS011;24179;52.094;4.408;2024-02-04T16:55:45;35.73;;;5.23;;
38397;SDS011;24179;52.094;4.408;2024-02-04T16:58:46;25.77;;;5.10;;
38397;SDS011;24179;52.094;4.408;2024-02-04T17:01:47;24.97;;;3.90;;
38397;SDS011;24179;52.094;4.408;2024-02-04T17:04:47;34.30;;;5.20;;
38397;SDS011;24179;52.094;4.408;2024-02-04T17:07:50;35.53;;;5.82;;
38397;SDS011;24179;52.094;4.408;2024-02-04T17:10:51;27.02;;;4.63;;
38397;SDS011;24179;52.094;4.408;2024-02-04T17:13:52;28.87;;;4.70;;
38397;SDS011;24179;52.094;4.408;2024-02-04T17:20:26;25.05;;;4.18;;
38397;SDS011;24179;52.094;4.408;2024-02-04T17:23:39;32.05;;;4.63;;
38397;SDS011;24179;52.094;4.408;2024-02-04T17:26:42;28.60;;;5.05;;
38397;SDS011;24179;52.094;4.408;2024-02-04T17:29:48;29.48;;;4.30;;
38397;SDS011;24179;52.094;4.408;2024-02-04T17:32:56;26.88;;;4.38;;
38397;SDS011;24179;52.094;4.408;2024-02-04T17:35:56;37.87;;;6.03;;
38397;SDS011;24179;52.094;4.408;2024-02-04T17:38:57;28.20;;;4.17;;
38397;SDS011;24179;52.094;4.408;2024-02-04T17:41:58;27.13;;;4.57;;
38397;SDS011;24179;52.094;4.408;2024-02-04T17:44:58;25.97;;;4.07;;
38397;SDS011;24179;52.094;4.408;2024-02-04T17:47:59;29.60;;;4.60;;
38397;SDS011;24179;52.094;4.408;2024-02-04T17:50:59;26.70;;;4.43;;
38397;SDS011;24179;52.094;4.408;2024-02-04T17:54:00;17.87;;;4.03;;
38397;SDS011;24179;52.094;4.408;2024-02-04T17:57:01;20.63;;;4.10;;
38397;SDS011;24179;52.094;4.408;2024-02-04T18:00:01;19.60;;;3.93;;
38397;SDS011;24179;52.094;4.408;2024-02-04T18:03:03;21.85;;;4.38;;
38397;SDS011;24179;52.094;4.408;2024-02-04T18:06:04;18.33;;;4.00;;
38397;SDS011;24179;52.094;4.408;2024-02-04T18:09:05;19.97;;;3.80;;
38397;SDS011;24179;52.094;4.408;2024-02-04T18:12:06;25.42;;;4.13;;
38397;SDS011;24179;52.094;4.408;2024-02-04T18:15:07;21.42;;;3.72;;
38397;SDS011;24179;52.094;4.408;2024-02-04T18:18:08;18.17;;;3.75;;
38397;SDS011;24179;52.094;4.408;2024-02-04T18:21:22;14.70;;;3.40;;
38397;SDS011;24179;52.094;4.408;2024-02-04T18:24:23;22.17;;;3.40;;